createdAt,value
2018-02-20T00:02:29.291Z,79.66
2018-02-20T00:08:33.852Z,79.13
2018-02-20T00:14:38.667Z,79.21
2018-02-20T00:20:44.327Z,79.55
2018-02-20T00:26:48.843Z,78.95
2018-02-20T00:32:53.423Z,78.88
2018-02-20T00:38:57.950Z,79.10
2018-02-20T00:45:02.441Z,79.11
2018-02-20T00:51:07.107Z,79.06
2018-02-20T00:57:11.621Z,80.13
2018-02-20T01:03:16.112Z,80.52
2018-02-20T01:09:20.728Z,80.55
2018-02-20T01:15:25.310Z,80.71
2018-02-20T01:21:29.975Z,79.83
2018-02-20T01:27:34.720Z,80.08
2018-02-20T01:33:39.206Z,79.98
2018-02-20T01:39:43.723Z,81.46
2018-02-20T01:45:48.388Z,80.31
2018-02-20T01:51:54.952Z,80.16
2018-02-20T01:58:00.350Z,81.59
2018-02-20T02:04:04.895Z,80.62
2018-02-20T02:10:09.396Z,80.76
2018-02-20T02:16:14.646Z,80.81
2018-02-20T02:22:19.345Z,81.13
2018-02-20T02:28:24.275Z,81.18
2018-02-20T02:34:28.822Z,81.92
2018-02-20T02:40:33.412Z,81.90
2018-02-20T02:46:38.697Z,81.61
2018-02-20T02:52:43.329Z,81.78
2018-02-20T02:58:47.844Z,82.20
2018-02-20T03:04:52.465Z,81.59
2018-02-20T03:10:56.989Z,80.94
2018-02-20T03:17:01.525Z,80.90
2018-02-20T03:23:06.002Z,82.18
2018-02-20T03:29:10.543Z,82.46
2018-02-20T03:35:15.029Z,82.14
2018-02-20T03:41:19.911Z,81.38
2018-02-20T03:47:25.301Z,81.41
2018-02-20T03:53:29.803Z,81.39
2018-02-20T03:59:35.365Z,82.17
2018-02-20T04:05:40.799Z,82.05
2018-02-20T04:11:45.310Z,82.41
2018-02-20T04:17:50.280Z,82.52
2018-02-20T04:23:55.110Z,82.72
2018-02-20T04:29:59.728Z,83.25
2018-02-20T04:36:04.226Z,82.92
2018-02-20T04:42:09.531Z,82.98
2018-02-20T04:48:14.203Z,82.38
2018-02-20T04:54:19.211Z,82.90
2018-02-20T05:00:23.815Z,82.81
2018-02-20T05:06:28.327Z,83.11
2018-02-20T05:12:32.941Z,83.42
2018-02-20T05:18:37.527Z,83.28
2018-02-20T05:24:42.014Z,83.16
2018-02-20T05:30:46.571Z,83.22
2018-02-20T05:36:51.057Z,83.18
2018-02-20T05:42:55.573Z,82.42
2018-02-20T05:49:00.207Z,82.32
2018-02-20T05:55:05.124Z,82.14
2018-02-20T06:01:09.665Z,82.20
2018-02-20T06:07:14.450Z,82.54
2018-02-20T06:13:19.341Z,83.09
2018-02-20T06:19:24.273Z,82.92
2018-02-20T06:25:28.820Z,83.65
2018-02-20T06:31:33.504Z,83.56
2018-02-20T06:37:38.118Z,83.36
2018-02-20T06:43:42.812Z,83.07
2018-02-20T06:49:47.499Z,82.83
2018-02-20T06:55:53.548Z,82.65
2018-02-20T07:01:58.443Z,82.24
2018-02-20T07:08:02.923Z,82.24
2018-02-20T07:14:07.418Z,82.07
2018-02-20T07:20:12.070Z,82.11
2018-02-20T07:26:16.689Z,81.19
2018-02-20T07:32:21.199Z,80.46
2018-02-20T07:38:26.722Z,80.81
2018-02-20T07:44:32.163Z,80.68
2018-02-20T07:50:36.727Z,81.26
2018-02-20T07:56:41.218Z,80.79
2018-02-20T08:02:45.746Z,81.39
2018-02-20T08:08:51.156Z,81.80
2018-02-20T08:14:56.425Z,82.31
2018-02-20T08:21:00.919Z,82.05
2018-02-20T08:27:06.158Z,81.47
2018-02-20T08:33:10.709Z,81.15
2018-02-20T08:39:15.480Z,81.29
2018-02-20T08:45:21.542Z,80.45
2018-02-20T08:51:26.084Z,81.04
2018-02-20T08:57:30.590Z,81.25
2018-02-20T09:03:35.051Z,81.23
2018-02-20T09:09:40.316Z,79.88
2018-02-20T09:15:44.869Z,77.98
2018-02-20T09:21:49.404Z,78.60
2018-02-20T09:27:54.190Z,78.26
2018-02-20T09:33:58.647Z,76.96
2018-02-20T09:40:03.878Z,76.96
2018-02-20T09:46:08.362Z,77.23
2018-02-20T09:52:13.757Z,76.38
2018-02-20T09:58:18.253Z,76.27
2018-02-20T10:04:24.315Z,75.13
2018-02-20T10:10:28.780Z,73.39
2018-02-20T10:16:34.332Z,72.54
2018-02-20T10:22:38.833Z,69.17
2018-02-20T10:28:43.422Z,69.03
2018-02-20T10:34:48.048Z,67.38
2018-02-20T10:40:52.748Z,67.70
2018-02-20T10:46:57.291Z,65.32
2018-02-20T10:53:01.777Z,64.98
2018-02-20T10:59:07.015Z,64.81
2018-02-20T11:05:11.534Z,65.34
2018-02-20T11:11:16.833Z,66.02
2018-02-20T11:17:22.613Z,65.82
2018-02-20T11:23:27.091Z,64.88
2018-02-20T11:29:31.586Z,63.08
2018-02-20T11:35:36.325Z,60.92
2018-02-20T11:41:40.930Z,60.92
2018-02-20T11:47:45.470Z,59.38
2018-02-20T11:53:50.393Z,59.22
2018-02-20T11:59:55.318Z,59.83
2018-02-20T12:05:59.957Z,58.00
2018-02-20T12:12:04.414Z,56.37
2018-02-20T12:18:09.051Z,55.30
2018-02-20T12:24:14.360Z,54.84
2018-02-20T12:30:19.132Z,54.14
2018-02-20T12:36:24.083Z,54.53
2018-02-20T12:42:28.621Z,54.36
2018-02-20T12:48:33.124Z,53.60
2018-02-20T12:54:37.685Z,54.31
2018-02-20T13:00:42.446Z,54.33
2018-02-20T13:06:47.013Z,54.09
2018-02-20T13:12:51.676Z,56.04
2018-02-20T13:18:56.300Z,56.50
2018-02-20T13:25:00.819Z,56.97
2018-02-20T13:31:05.357Z,58.40
2018-02-20T13:37:09.821Z,57.86
2018-02-20T13:43:14.352Z,58.80
2018-02-20T13:49:18.970Z,50.83
2018-02-20T13:55:24.241Z,53.47
2018-02-20T14:01:28.690Z,55.20
2018-02-20T14:07:33.248Z,53.96
2018-02-20T14:13:37.753Z,53.79
2018-02-20T14:19:42.233Z,55.41
2018-02-20T14:25:46.855Z,58.82
2018-02-20T14:31:51.511Z,58.49
2018-02-20T14:37:56.155Z,59.07
2018-02-20T14:44:00.679Z,58.99
2018-02-20T14:50:05.580Z,57.54
2018-02-20T14:56:10.988Z,58.78
2018-02-20T15:02:15.479Z,60.02
2018-02-20T15:08:20.121Z,59.17
2018-02-20T15:14:24.652Z,58.75
2018-02-20T15:20:29.959Z,59.14
2018-02-20T15:26:34.467Z,59.10
2018-02-20T15:32:39.085Z,58.66
2018-02-20T15:38:43.706Z,58.75
2018-02-20T15:44:48.416Z,60.19
2018-02-20T15:50:53.878Z,60.57
2018-02-20T15:56:58.346Z,61.84
2018-02-20T16:03:02.863Z,62.68
2018-02-20T16:09:07.818Z,62.79
2018-02-20T16:15:12.361Z,64.05
2018-02-20T16:21:17.821Z,63.77
2018-02-20T16:27:23.633Z,63.20
2018-02-20T16:33:28.237Z,62.00
2018-02-20T16:39:33.467Z,62.77
2018-02-20T16:45:38.046Z,62.72
2018-02-20T16:51:42.629Z,62.83
2018-02-20T16:57:47.173Z,63.13
2018-02-20T17:03:51.844Z,62.59
2018-02-20T17:09:56.405Z,62.05
2018-02-20T17:16:01.025Z,62.55
2018-02-20T17:22:05.563Z,62.13
2018-02-20T17:28:10.073Z,62.27
2018-02-20T17:34:14.629Z,63.15
2018-02-20T17:40:19.633Z,63.52
2018-02-20T17:46:24.252Z,63.00
2018-02-20T17:52:28.851Z,64.24
2018-02-20T17:58:33.351Z,65.06
2018-02-20T18:04:37.847Z,66.13
2018-02-20T18:10:42.468Z,67.32
2018-02-20T18:16:46.993Z,68.30
2018-02-20T18:22:52.305Z,68.37
2018-02-20T18:28:57.587Z,68.23
2018-02-20T18:35:02.209Z,68.45
2018-02-20T18:41:06.953Z,68.56
2018-02-20T18:47:11.527Z,67.93
2018-02-20T18:53:16.193Z,68.27
2018-02-20T18:59:21.367Z,68.78
2018-02-20T19:05:26.048Z,68.79
2018-02-20T19:11:30.618Z,68.12
2018-02-20T19:17:36.798Z,66.28
2018-02-20T19:23:42.977Z,67.20
2018-02-20T19:29:47.459Z,66.34
2018-02-20T19:35:52.684Z,66.90
2018-02-20T19:41:58.019Z,67.24
2018-02-20T19:48:02.501Z,67.40
2018-02-20T19:54:07.120Z,67.39
2018-02-20T20:00:11.565Z,67.93
2018-02-20T20:06:16.338Z,68.40
2018-02-20T20:12:22.430Z,68.79
2018-02-20T20:18:26.993Z,68.84
2018-02-20T20:24:31.644Z,68.84
2018-02-20T20:30:36.379Z,68.81
2018-02-20T20:36:40.989Z,69.07
2018-02-20T20:42:45.623Z,69.00
2018-02-20T20:48:52.162Z,69.59
2018-02-20T20:54:56.683Z,69.24
2018-02-20T21:01:01.355Z,69.50
2018-02-20T21:07:06.036Z,69.95
2018-02-20T21:13:10.566Z,70.18
2018-02-20T21:19:15.857Z,70.38
2018-02-20T21:25:21.039Z,70.49
2018-02-20T21:31:26.502Z,70.71
2018-02-20T21:37:31.052Z,70.62
2018-02-20T21:43:35.659Z,69.62
2018-02-20T21:49:40.425Z,69.92
2018-02-20T21:55:44.957Z,69.26
2018-02-20T22:01:49.527Z,69.12
2018-02-20T22:07:54.604Z,69.53
2018-02-20T22:13:59.355Z,68.76
2018-02-20T22:20:03.868Z,68.88
2018-02-20T22:26:08.538Z,69.69
2018-02-20T22:32:13.253Z,70.49
2018-02-20T22:38:17.787Z,70.64
2018-02-20T22:44:22.350Z,70.82
2018-02-20T22:50:26.880Z,71.16
2018-02-20T22:56:31.443Z,71.60
2018-02-20T23:02:35.974Z,71.51
2018-02-20T23:08:41.228Z,72.50
2018-02-20T23:14:45.726Z,73.05
2018-02-20T23:20:50.374Z,73.56
2018-02-20T23:26:55.190Z,74.11
2018-02-20T23:32:59.691Z,74.61
2018-02-20T23:39:05.067Z,75.13
2018-02-20T23:45:09.550Z,75.44
2018-02-20T23:51:20.160Z,75.85
2018-02-20T23:57:25.690Z,76.31
